Time;durP1;ratioP1;P1;durP2;ratioP2;P2;SDS_P1;SDS_P2;PMS_P1;PMS_P2;Temp;Humidity;BMP_temperature;BMP_pressure;BME280_temperature;BME280_humidity;BME280_pressure;Samples;Min_cycle;Max_cycle;Signal;HPM_P1;HPM_P2
2022/01/24 00:02:15;;;;;;;;;34.50;31.75;;;;;7.23;100.00;102944.94;5039263;28;45374;-76
2022/01/24 00:04:41;;;;;;;;;43.50;37.25;;;;;7.19;100.00;102937.66;5038493;28;45277;-77
2022/01/24 00:07:06;;;;;;;;;43.25;35.75;;;;;7.18;100.00;102941.00;5038392;28;45428;-78
2022/01/24 00:09:32;;;;;;;;;43.50;35.25;;;;;7.15;100.00;102940.72;5038471;28;45423;-78
2022/01/24 00:12:27;;;;;;;;;41.75;35.75;;;;;7.09;100.00;102941.03;5020338;28;46814;-79
2022/01/24 00:15:06;;;;;;;;;41.25;33.00;;;;;7.05;100.00;102933.81;5037511;28;45372;-75
2022/01/24 00:17:41;;;;;;;;;40.50;35.00;;;;;7.04;100.00;102933.66;5038057;28;45316;-78
2022/01/24 00:28:20;;;;;;;;;38.75;32.00;;;;;7.06;100.00;102921.81;5038803;28;45397;-78
2022/01/24 00:30:47;;;;;;;;;41.25;36.50;;;;;7.06;100.00;102924.41;5023094;28;45486;-83
2022/01/24 00:33:13;;;;;;;;;46.00;35.25;;;;;7.05;100.00;102914.84;5027426;28;46720;-84
2022/01/24 00:35:38;;;;;;;;;45.75;37.50;;;;;7.04;100.00;102913.03;5040623;28;45259;-81
2022/01/24 00:38:04;;;;;;;;;44.25;36.25;;;;;7.01;100.00;102913.69;5020437;28;45263;-78
2022/01/24 00:40:38;;;;;;;;;41.50;34.25;;;;;6.99;100.00;102912.63;5019826;28;45182;-79
2022/01/24 00:43:10;;;;;;;;;37.00;30.00;;;;;6.95;100.00;102908.84;5037482;28;45290;-81
2022/01/24 00:45:51;;;;;;;;;40.75;36.00;;;;;6.94;100.00;102908.72;5020392;28;45421;-78
2022/01/24 00:55:56;;;;;;;;;39.75;32.50;;;;;6.84;100.00;102898.31;5037689;28;45458;-79
2022/01/24 00:58:21;;;;;;;;;43.25;33.25;;;;;6.82;100.00;102899.09;5037577;28;45306;-76
2022/01/24 01:00:47;;;;;;;;;26.50;21.00;;;;;6.82;100.00;102891.38;5038183;28;45646;-77
2022/01/24 01:03:13;;;;;;;;;42.25;35.50;;;;;6.85;100.00;102897.56;5037470;28;45386;-79
2022/01/24 01:06:02;;;;;;;;;38.75;34.00;;;;;6.81;100.00;102897.28;5037238;28;45260;-78
2022/01/24 01:19:26;;;;;;;;;41.00;35.00;;;;;6.66;100.00;102906.09;5037785;28;45392;-78
2022/01/24 01:21:51;;;;;;;;;35.75;31.50;;;;;6.69;100.00;102908.09;5020207;28;45471;-77
2022/01/24 01:24:18;;;;;;;;;32.00;30.75;;;;;6.71;100.00;102902.31;5037190;28;45940;-81
2022/01/24 01:26:50;;;;;;;;;36.50;32.25;;;;;6.69;100.00;102900.38;5036787;28;46076;-77
2022/01/24 01:29:22;;;;;;;;;30.00;25.25;;;;;6.66;100.00;102898.38;5037571;28;45427;-82
2022/01/24 01:55:52;;;;;;;;;36.00;29.25;;;;;6.52;100.00;102888.47;5016978;28;45752;-75
2022/01/24 01:58:21;;;;;;;;;42.75;32.25;;;;;6.48;100.00;102889.81;5014747;28;45385;-76
2022/01/24 02:00:55;;;;;;;;;32.75;27.50;;;;;6.49;100.00;102897.72;5037235;28;45236;-76
2022/01/24 02:03:22;;;;;;;;;31.25;26.75;;;;;6.47;100.00;102900.91;5037251;28;45290;-75
2022/01/24 02:05:48;;;;;;;;;30.75;28.50;;;;;6.48;100.00;102900.13;5036980;28;45496;-78
2022/01/24 02:08:16;;;;;;;;;30.50;28.75;;;;;6.50;100.00;102899.53;5036577;28;45470;-76
2022/01/24 02:10:43;;;;;;;;;36.50;29.50;;;;;6.49;100.00;102904.50;5018599;28;45320;-80
2022/01/24 02:13:10;;;;;;;;;34.00;29.75;;;;;6.47;100.00;102900.91;5017065;28;45296;-76
2022/01/24 02:16:19;;;;;;;;;29.50;28.50;;;;;6.46;100.00;102902.56;4999660;28;47922;-75
2022/01/24 02:21:42;;;;;;;;;36.75;30.25;;;;;6.47;100.00;102886.34;4979410;28;45467;-80
2022/01/24 02:24:10;;;;;;;;;34.50;28.75;;;;;6.51;100.00;102882.41;4999215;28;46485;-81
2022/01/24 02:26:35;;;;;;;;;38.00;26.75;;;;;6.52;100.00;102875.59;5015954;28;45460;-81
2022/01/24 02:29:15;;;;;;;;;33.25;27.00;;;;;6.52;100.00;102886.78;5016465;28;45311;-82
2022/01/24 02:31:50;;;;;;;;;36.00;30.75;;;;;6.49;100.00;102879.69;5016246;28;45365;-77
2022/01/24 02:34:24;;;;;;;;;30.00;27.00;;;;;6.46;100.00;102874.25;5016957;28;45328;-75
2022/01/24 02:36:52;;;;;;;;;28.25;24.25;;;;;6.46;100.00;102881.97;5016150;28;45561;-79
2022/01/24 02:50:22;;;;;;;;;39.75;32.75;;;;;6.35;100.00;102867.19;5034906;28;45440;-77
2022/01/24 02:52:48;;;;;;;;;34.00;32.50;;;;;6.35;100.00;102870.69;5031838;28;45714;-78
2022/01/24 02:55:13;;;;;;;;;34.50;30.50;;;;;6.34;100.00;102867.94;5017123;28;45602;-79
2022/01/24 02:57:39;;;;;;;;;33.25;24.75;;;;;6.36;100.00;102871.56;5034723;28;46080;-79
2022/01/24 03:00:05;;;;;;;;;36.75;31.00;;;;;6.35;100.00;102869.75;5017180;28;45348;-79
2022/01/24 03:02:31;;;;;;;;;30.75;27.50;;;;;6.32;100.00;102872.94;5016163;28;45594;-80
2022/01/24 03:04:57;;;;;;;;;26.75;25.00;;;;;6.28;100.00;102869.94;5035844;28;45410;-79
2022/01/24 03:07:23;;;;;;;;;29.75;23.75;;;;;6.24;100.00;102873.88;5034915;28;45654;-79
2022/01/24 03:09:51;;;;;;;;;31.75;29.50;;;;;6.22;100.00;102871.91;5039299;28;45517;-79
2022/01/24 03:12:38;;;;;;;;;42.75;31.50;;;;;6.21;100.00;102867.56;5037372;28;45319;-79
2022/01/24 03:15:03;;;;;;;;;36.00;30.25;;;;;6.19;100.00;102862.25;5034643;28;45493;-81
2022/01/24 03:17:29;;;;;;;;;36.50;31.25;;;;;6.21;100.00;102857.25;5034227;28;45359;-79
2022/01/24 03:19:55;;;;;;;;;35.25;32.25;;;;;6.24;100.00;102857.53;5034569;28;45425;-78
2022/01/24 03:22:21;;;;;;;;;38.00;32.50;;;;;6.23;100.00;102858.28;5035777;28;45344;-77
2022/01/24 03:24:48;;;;;;;;;28.00;24.75;;;;;6.21;100.00;102845.28;5035900;28;45450;-76
2022/01/24 03:27:15;;;;;;;;;30.75;29.00;;;;;6.20;100.00;102848.63;5035132;28;45239;-79
2022/01/24 03:29:41;;;;;;;;;39.50;30.75;;;;;6.19;100.00;102844.22;5034476;28;45394;-76
2022/01/24 03:32:07;;;;;;;;;33.75;29.00;;;;;6.18;100.00;102830.47;5015676;28;45560;-79
2022/01/24 03:34:32;;;;;;;;;32.50;26.75;;;;;6.21;100.00;102846.97;5030028;28;45386;-79
2022/01/24 03:36:58;;;;;;;;;32.25;25.75;;;;;6.21;100.00;102844.41;5039914;28;45438;-79
2022/01/24 03:39:24;;;;;;;;;37.00;30.75;;;;;6.18;100.00;102845.91;5034903;28;45337;-80
2022/01/24 03:41:49;;;;;;;;;38.50;33.50;;;;;6.18;100.00;102840.78;5015722;28;45475;-80
2022/01/24 03:44:17;;;;;;;;;35.75;31.00;;;;;6.12;100.00;102832.44;5024441;28;45276;-79
2022/01/24 03:52:08;;;;;;;;;35.50;28.25;;;;;6.14;100.00;102837.75;5035285;28;45375;-79
2022/01/24 03:54:34;;;;;;;;;35.25;28.50;;;;;6.14;100.00;102838.66;5035230;28;45402;-78
2022/01/24 03:57:00;;;;;;;;;35.25;28.00;;;;;6.13;100.00;102835.94;4986927;28;45404;-78
2022/01/24 03:59:26;;;;;;;;;35.00;27.50;;;;;6.10;100.00;102835.66;5014895;28;45993;-79
2022/01/24 04:01:52;;;;;;;;;32.00;24.00;;;;;6.09;100.00;102831.25;5016968;28;45359;-78
2022/01/24 04:04:17;;;;;;;;;37.00;28.50;;;;;6.04;100.00;102825.69;5002271;28;45591;-78
2022/01/24 04:06:43;;;;;;;;;37.00;30.25;;;;;6.07;100.00;102835.34;5002977;28;45270;-80
2022/01/24 04:09:09;;;;;;;;;33.50;26.50;;;;;6.07;100.00;102822.47;5020355;28;45298;-81
2022/01/24 04:11:38;;;;;;;;;33.25;27.25;;;;;6.06;100.00;102820.66;5029425;28;45298;-80
2022/01/24 04:14:24;;;;;;;;;34.75;29.50;;;;;6.06;100.00;102824.16;5037878;28;46850;-79
2022/01/24 04:22:11;;;;;;;;;43.00;30.00;;;;;6.06;100.00;102820.66;5037347;28;45377;-77
2022/01/24 04:24:37;;;;;;;;;29.75;23.75;;;;;6.01;100.00;102810.88;5037811;28;45724;-80
2022/01/24 04:27:03;;;;;;;;;41.00;33.00;;;;;6.03;100.00;102819.66;5038075;28;46043;-80
2022/01/24 04:29:29;;;;;;;;;28.75;27.00;;;;;6.03;100.00;102821.28;5037640;28;45246;-76
2022/01/24 04:31:54;;;;;;;;;36.75;33.00;;;;;6.02;100.00;102815.25;5040702;28;45217;-80
2022/01/24 04:34:20;;;;;;;;;32.75;26.75;;;;;6.03;100.00;102818.72;5041922;28;45475;-77
2022/01/24 04:36:46;;;;;;;;;34.25;30.75;;;;;6.01;100.00;102827.94;5039321;28;45516;-77
2022/01/24 04:39:11;;;;;;;;;33.25;29.75;;;;;5.98;100.00;102823.38;5038355;28;45349;-79
2022/01/24 04:41:41;;;;;;;;;34.75;29.75;;;;;6.00;100.00;102824.47;5037749;28;45371;-80
2022/01/24 04:44:29;;;;;;;;;32.50;29.00;;;;;6.01;100.00;102835.66;5038190;28;45618;-80
2022/01/24 04:52:34;;;;;;;;;31.25;25.50;;;;;5.99;100.00;102832.94;5038359;28;45340;-80
2022/01/24 04:55:00;;;;;;;;;30.00;26.25;;;;;6.01;100.00;102830.50;5038712;28;45223;-80
2022/01/24 04:57:28;;;;;;;;;37.25;32.00;;;;;6.03;100.00;102831.56;5037771;28;45422;-79
2022/01/24 04:59:56;;;;;;;;;42.50;33.00;;;;;6.04;100.00;102829.16;5039155;28;45446;-79
2022/01/24 05:02:23;;;;;;;;;31.75;27.00;;;;;6.06;100.00;102830.94;5021004;28;45398;-80
2022/01/24 05:04:49;;;;;;;;;34.75;28.75;;;;;6.07;100.00;102837.91;5038672;28;45419;-79
2022/01/24 05:07:15;;;;;;;;;39.25;34.00;;;;;6.03;100.00;102832.50;5038281;28;45883;-80
2022/01/24 05:09:46;;;;;;;;;39.00;30.50;;;;;6.03;100.00;102834.16;5036508;28;45600;-79
2022/01/24 05:12:20;;;;;;;;;36.00;29.50;;;;;6.03;100.00;102831.56;5037420;28;45383;-81
2022/01/24 05:25:43;;;;;;;;;32.25;28.25;;;;;6.01;100.00;102831.44;5037735;28;45613;-81
2022/01/24 05:28:08;;;;;;;;;32.50;29.75;;;;;6.00;100.00;102838.97;5042970;28;45404;-79
2022/01/24 05:30:34;;;;;;;;;36.75;31.75;;;;;5.98;100.00;102825.97;5022895;28;45447;-80
2022/01/24 05:32:59;;;;;;;;;29.50;27.75;;;;;5.98;100.00;102819.94;5037821;28;45372;-81
2022/01/24 05:35:25;;;;;;;;;41.25;29.25;;;;;5.99;100.00;102820.09;5037611;28;45446;-78
2022/01/24 05:37:51;;;;;;;;;35.00;28.25;;;;;6.00;100.00;102823.56;5036952;28;46396;-80
2022/01/24 05:40:16;;;;;;;;;34.75;28.25;;;;;5.99;100.00;102822.66;5037076;28;45410;-80
2022/01/24 05:42:42;;;;;;;;;31.25;26.75;;;;;5.99;100.00;102826.88;5036571;28;45360;-80
2022/01/24 05:45:08;;;;;;;;;38.50;31.50;;;;;5.98;100.00;102825.06;5037034;28;45611;-80
2022/01/24 05:47:34;;;;;;;;;35.25;29.50;;;;;5.94;100.00;102818.69;5036797;28;46383;-80
2022/01/24 05:49:59;;;;;;;;;38.75;30.00;;;;;5.96;100.00;102821.44;5019258;28;45278;-77
2022/01/24 05:52:25;;;;;;;;;42.25;33.75;;;;;5.93;100.00;102816.00;5036565;28;45242;-80
2022/01/24 05:54:51;;;;;;;;;36.75;29.50;;;;;5.91;100.00;102815.84;5039752;28;45451;-78
2022/01/24 05:57:16;;;;;;;;;43.50;34.00;;;;;5.90;100.00;102814.03;5040505;28;46030;-80
2022/01/24 05:59:42;;;;;;;;;32.50;28.00;;;;;5.89;100.00;102818.25;5037338;28;45410;-79
2022/01/24 06:02:08;;;;;;;;;32.75;29.75;;;;;5.91;100.00;102809.78;5018869;28;45282;-80
2022/01/24 06:04:33;;;;;;;;;34.50;28.50;;;;;5.92;100.00;102809.03;5036606;28;45573;-79
2022/01/24 06:06:59;;;;;;;;;39.00;32.50;;;;;5.92;100.00;102809.03;5036306;28;45358;-80
2022/01/24 06:09:25;;;;;;;;;36.75;28.00;;;;;5.90;100.00;102808.91;5039165;28;45458;-80
2022/01/24 06:11:51;;;;;;;;;40.25;34.75;;;;;5.91;100.00;102812.34;5036331;28;45422;-78
2022/01/24 06:14:17;;;;;;;;;37.00;26.75;;;;;5.91;100.00;102826.13;5037057;28;45449;-81
2022/01/24 06:16:43;;;;;;;;;45.75;33.75;;;;;5.91;100.00;102821.00;5036105;28;45660;-80
2022/01/24 06:19:09;;;;;;;;;44.00;35.50;;;;;5.88;100.00;102823.25;5036334;28;45237;-80
2022/01/24 06:21:35;;;;;;;;;32.00;30.50;;;;;5.84;100.00;102823.72;5035127;28;45395;-80
2022/01/24 06:24:03;;;;;;;;;34.75;30.50;;;;;5.83;100.00;102829.63;5025024;28;45454;-81
2022/01/24 06:26:30;;;;;;;;;38.50;34.00;;;;;5.80;100.00;102830.22;5013276;28;47733;-81
2022/01/24 06:28:56;;;;;;;;;35.50;29.75;;;;;5.77;100.00;102823.88;5018740;28;45867;-80
2022/01/24 06:31:21;;;;;;;;;36.25;29.75;;;;;5.77;100.00;102832.53;5035705;28;45442;-82
2022/01/24 06:33:48;;;;;;;;;29.50;25.00;;;;;5.77;100.00;102827.38;5035905;28;45530;-82
2022/01/24 06:36:14;;;;;;;;;48.75;34.50;;;;;5.79;100.00;102825.84;5017437;28;48143;-80
2022/01/24 06:38:40;;;;;;;;;38.00;30.00;;;;;5.79;100.00;102835.22;5033602;28;46079;-82
2022/01/24 06:41:06;;;;;;;;;33.00;26.75;;;;;5.78;100.00;102836.00;5014314;28;45853;-82
2022/01/24 06:43:31;;;;;;;;;42.50;36.75;;;;;5.79;100.00;102838.69;5005944;28;45234;-80
2022/01/24 06:45:57;;;;;;;;;37.50;30.75;;;;;5.81;100.00;102831.16;5026186;28;45588;-79
2022/01/24 06:48:23;;;;;;;;;37.50;30.75;;;;;5.81;100.00;102834.63;5034149;28;45441;-78
2022/01/24 06:50:49;;;;;;;;;40.50;33.50;;;;;5.80;100.00;102837.94;5036215;28;45495;-81
2022/01/24 06:53:15;;;;;;;;;36.00;31.75;;;;;5.82;100.00;102835.53;5030309;28;46105;-80
2022/01/24 06:55:41;;;;;;;;;36.25;31.25;;;;;5.81;100.00;102829.47;5024769;28;46160;-80
2022/01/24 06:58:07;;;;;;;;;42.50;35.75;;;;;5.80;100.00;102829.34;5035795;28;45978;-79
2022/01/24 07:00:33;;;;;;;;;40.50;33.25;;;;;5.78;100.00;102829.16;5024582;28;45504;-81
2022/01/24 07:02:59;;;;;;;;;37.00;31.25;;;;;5.77;100.00;102829.03;5025250;28;45497;-80
2022/01/24 07:05:28;;;;;;;;;41.75;31.00;;;;;5.77;100.00;102835.09;5035289;28;45347;-80
2022/01/24 07:07:56;;;;;;;;;37.50;33.00;;;;;5.75;100.00;102834.03;5035946;28;45467;-87
2022/01/24 07:10:24;;;;;;;;;40.00;34.25;;;;;5.76;100.00;102845.22;5035453;28;45413;-80
2022/01/24 07:12:50;;;;;;;;;30.50;26.25;;;;;5.73;100.00;102844.16;5036513;28;45218;-85
2022/01/24 07:15:19;;;;;;;;;44.00;32.50;;;;;5.71;100.00;102843.13;5035843;28;45892;-79
2022/01/24 07:18:01;;;;;;;;;34.25;32.00;;;;;5.70;100.00;102842.94;5040027;28;45138;-80
2022/01/24 07:20:26;;;;;;;;;46.75;34.75;;;;;5.67;100.00;102851.28;5039679;28;45312;-81
2022/01/24 07:22:52;;;;;;;;;35.00;31.50;;;;;5.66;100.00;102846.88;5035177;28;45322;-80
2022/01/24 07:25:19;;;;;;;;;36.75;33.25;;;;;5.66;100.00;102846.00;5017526;28;46208;-82
2022/01/24 07:27:44;;;;;;;;;48.75;36.75;;;;;5.65;100.00;102844.19;5034857;28;45343;-80
2022/01/24 07:30:10;;;;;;;;;35.75;32.25;;;;;5.66;100.00;102840.84;5035589;28;45307;-81
2022/01/24 07:32:37;;;;;;;;;38.50;36.00;;;;;5.67;100.00;102846.13;5040545;28;45327;-80
2022/01/24 07:35:03;;;;;;;;;36.75;30.50;;;;;5.67;100.00;102845.25;5033202;28;46228;-76
2022/01/24 07:37:28;;;;;;;;;33.00;30.25;;;;;5.69;100.00;102846.28;5027207;28;45375;-78
2022/01/24 07:39:55;;;;;;;;;41.75;33.25;;;;;5.68;100.00;102852.16;5025040;28;45426;-80
2022/01/24 07:42:30;;;;;;;;;38.75;34.50;;;;;5.68;100.00;102847.94;5038297;28;45580;-75
2022/01/24 07:44:56;;;;;;;;;37.75;32.25;;;;;5.71;100.00;102847.34;5035799;28;45865;-80
2022/01/24 07:47:21;;;;;;;;;38.00;29.00;;;;;5.72;100.00;102846.56;5035735;28;45289;-81
2022/01/24 07:49:47;;;;;;;;;47.25;33.50;;;;;5.75;100.00;102852.03;5040091;28;45227;-80
2022/01/24 07:52:13;;;;;;;;;37.75;34.50;;;;;5.73;100.00;102850.97;5036397;28;45406;-79
2022/01/24 07:54:38;;;;;;;;;43.00;33.50;;;;;5.73;100.00;102853.53;5037683;28;46067;-79
2022/01/24 07:57:04;;;;;;;;;36.25;31.00;;;;;5.73;100.00;102856.09;5035520;28;45422;-77
2022/01/24 07:59:30;;;;;;;;;41.50;34.75;;;;;5.74;100.00;102856.25;5034734;28;45582;-79
2022/01/24 08:01:56;;;;;;;;;40.25;36.25;;;;;5.72;100.00;102860.31;5038061;28;45331;-77
2022/01/24 08:04:21;;;;;;;;;44.25;35.75;;;;;5.70;100.00;102856.72;5037863;28;45415;-78
2022/01/24 08:06:49;;;;;;;;;37.75;35.25;;;;;5.68;100.00;102857.31;5037521;28;45381;-78
2022/01/24 08:09:14;;;;;;;;;35.00;30.25;;;;;5.67;100.00;102858.09;5042403;28;45439;-81
2022/01/24 08:11:40;;;;;;;;;40.00;34.00;;;;;5.66;100.00;102867.44;5056963;28;46142;-76
2022/01/24 08:14:08;;;;;;;;;38.25;33.75;;;;;5.66;100.00;102857.16;5061223;28;45586;-77
2022/01/24 08:16:37;;;;;;;;;35.00;30.75;;;;;5.64;100.00;102861.25;5060299;28;45994;-84
2022/01/24 08:19:03;;;;;;;;;37.50;33.75;;;;;5.65;100.00;102857.03;5042562;28;45413;-86
2022/01/24 08:21:28;;;;;;;;;39.75;32.75;;;;;5.68;100.00;102863.38;5032715;28;45505;-83
2022/01/24 08:23:55;;;;;;;;;49.00;41.25;;;;;5.72;100.00;102862.88;5039422;28;45874;-84
2022/01/24 08:26:22;;;;;;;;;33.25;28.75;;;;;5.74;100.00;102869.09;5038893;28;45416;-81
2022/01/24 08:28:48;;;;;;;;;41.00;33.75;;;;;5.72;100.00;102868.03;5038753;28;45415;-81
2022/01/24 08:31:14;;;;;;;;;45.25;36.75;;;;;5.72;100.00;102875.75;5019276;28;45539;-82
2022/01/24 08:33:40;;;;;;;;;45.75;36.75;;;;;5.76;100.00;102870.91;5036635;28;45312;-83
2022/01/24 08:36:05;;;;;;;;;36.25;29.50;;;;;5.76;100.00;102869.25;5037085;28;45443;-83
2022/01/24 08:38:34;;;;;;;;;29.75;27.50;;;;;5.76;100.00;102871.84;5038012;28;45285;-83
2022/01/24 08:41:06;;;;;;;;;44.00;33.00;;;;;5.77;100.00;102876.22;5040308;28;45434;-82
2022/01/24 08:43:51;;;;;;;;;48.00;37.50;;;;;5.77;100.00;102875.28;5043385;28;45624;-83
2022/01/24 08:46:18;;;;;;;;;37.50;33.00;;;;;5.78;100.00;102877.13;5033703;28;45355;-83
2022/01/24 08:48:46;;;;;;;;;37.25;32.00;;;;;5.77;100.00;102876.22;5034311;28;45675;-80
2022/01/24 08:51:11;;;;;;;;;38.25;33.25;;;;;5.78;100.00;102875.44;5038240;28;45217;-83
2022/01/24 08:53:37;;;;;;;;;41.50;34.25;;;;;5.81;100.00;102882.56;5043480;28;46020;-83
2022/01/24 08:56:06;;;;;;;;;47.25;36.50;;;;;5.82;100.00;102871.53;5033256;28;45426;-83
2022/01/24 08:58:33;;;;;;;;;48.50;35.75;;;;;5.80;100.00;102875.59;5017600;28;45290;-85
2022/01/24 09:00:59;;;;;;;;;48.50;38.25;;;;;5.79;100.00;102877.25;5015693;28;45663;-81
2022/01/24 09:03:29;;;;;;;;;37.50;34.00;;;;;5.83;100.00;102883.63;5033250;28;46054;-86
2022/01/24 09:05:57;;;;;;;;;36.75;28.25;;;;;5.82;100.00;102885.28;5041482;28;45438;-86
2022/01/24 09:08:23;;;;;;;;;39.00;36.25;;;;;5.84;100.00;102890.56;5040061;28;45423;-88
2022/01/24 09:10:50;;;;;;;;;45.00;34.50;;;;;5.84;100.00;102895.69;5045608;28;45363;-79
2022/01/24 09:13:18;;;;;;;;;45.00;38.25;;;;;5.80;100.00;102897.06;5042796;28;45453;-81
2022/01/24 09:15:44;;;;;;;;;47.50;36.00;;;;;5.83;100.00;102888.75;5040237;28;45890;-84
2022/01/24 09:18:09;;;;;;;;;42.00;35.75;;;;;5.83;100.00;102894.78;5050606;28;44794;-78
2022/01/24 09:20:38;;;;;;;;;49.00;36.00;;;;;5.87;100.00;102884.06;5036897;28;45407;-88
2022/01/24 09:23:05;;;;;;;;;44.25;35.50;;;;;5.89;100.00;102897.94;5033369;28;46246;-83
2022/01/24 09:25:31;;;;;;;;;46.50;36.25;;;;;5.92;100.00;102896.44;5037703;28;46311;-84
2022/01/24 09:27:57;;;;;;;;;46.75;38.50;;;;;5.92;100.00;102891.31;5037063;28;45358;-84
2022/01/24 09:30:24;;;;;;;;;49.75;38.00;;;;;5.95;100.00;102895.06;5020670;28;45467;-89
2022/01/24 09:32:50;;;;;;;;;48.25;38.75;;;;;6.02;100.00;102901.75;5019889;28;45487;-88
2022/01/24 09:35:17;;;;;;;;;43.00;37.75;;;;;6.05;100.00;102899.50;5032737;28;45521;-83
2022/01/24 09:37:46;;;;;;;;;46.25;37.00;;;;;6.08;100.00;102893.72;5032071;28;45430;-86
2022/01/24 09:40:16;;;;;;;;;32.75;32.75;;;;;6.09;100.00;102896.47;5017790;28;45255;-86
2022/01/24 09:42:44;;;;;;;;;44.50;38.25;;;;;6.11;100.00;102892.34;5044033;28;47375;-88
2022/01/24 09:45:12;;;;;;;;;48.50;37.75;;;;;6.12;100.00;102899.31;5033647;28;45372;-90
2022/01/24 09:47:37;;;;;;;;;51.00;40.50;;;;;6.15;100.00;102902.19;5025320;28;45328;-86
2022/01/24 09:50:06;;;;;;;;;45.00;39.25;;;;;6.20;100.00;102902.63;5028703;28;45360;-80
2022/01/24 09:52:32;;;;;;;;;38.75;34.00;;;;;6.25;100.00;102904.00;5034003;28;46226;-88
2022/01/24 09:54:59;;;;;;;;;47.00;39.00;;;;;6.28;100.00;102893.09;5022132;28;45801;-88
2022/01/24 09:57:24;;;;;;;;;41.75;33.00;;;;;6.29;100.00;102900.94;5048644;28;45288;-89
2022/01/24 09:59:52;;;;;;;;;46.50;37.00;;;;;6.30;100.00;102894.16;5038471;28;45742;-87
2022/01/24 10:02:18;;;;;;;;;45.75;38.00;;;;;6.31;100.00;102899.44;5041864;28;46434;-90
2022/01/24 10:04:43;;;;;;;;;46.50;39.00;;;;;6.34;100.00;102896.22;5045043;28;45491;-84
2022/01/24 10:07:16;;;;;;;;;47.25;39.75;;;;;6.36;100.00;102897.28;5045524;28;45320;-87
2022/01/24 10:09:45;;;;;;;;;54.75;38.25;;;;;6.37;100.00;102888.81;5031265;28;45265;-88
2022/01/24 10:16:24;;;;;;;;;49.75;39.50;;;;;6.41;100.00;102895.16;5018503;28;45476;-83
2022/01/24 10:17:54;;;;;;;;;40.75;36.75;;;;;6.50;100.00;102891.81;5019226;28;45257;-80
2022/01/24 10:20:26;;;;;;;;;44.00;36.75;;;;;6.55;100.00;102884.53;5001407;28;45238;-87
2022/01/24 10:23:16;;;;;;;;;36.25;32.75;;;;;6.60;100.00;102887.53;5019455;28;45979;-82
2022/01/24 10:26:04;;;;;;;;;43.50;35.75;;;;;6.63;100.00;102890.41;5018983;28;45407;-87
2022/01/24 10:28:38;;;;;;;;;45.00;37.00;;;;;6.64;100.00;102890.53;5019103;28;46133;-90
2022/01/24 10:31:11;;;;;;;;;52.25;40.00;;;;;6.68;100.00;102896.88;5026546;28;45469;-84
2022/01/24 10:34:22;;;;;;;;;51.00;38.50;;;;;6.72;100.00;102888.69;5018916;28;48190;-86
2022/01/24 10:36:54;;;;;;;;;50.25;36.75;;;;;6.75;100.00;102888.94;4956022;28;45379;-84
2022/01/24 10:39:54;;;;;;;;;43.75;36.75;;;;;6.79;100.00;102887.59;5040775;28;45414;-81
2022/01/24 10:45:00;;;;;;;;;47.50;37.75;;;;;6.80;100.00;102871.38;5038366;28;45525;-84
2022/01/24 10:47:29;;;;;;;;;44.25;39.50;;;;;6.83;100.00;102871.66;5048016;28;45405;-85
2022/01/24 10:49:56;;;;;;;;;52.75;38.75;;;;;6.87;100.00;102873.75;5048126;28;45500;-87
2022/01/24 10:52:30;;;;;;;;;46.50;37.00;;;;;6.86;100.00;102866.81;5042476;28;46476;-80
2022/01/24 10:55:13;;;;;;;;;42.50;36.75;;;;;6.93;100.00;102864.03;5042412;28;46203;-85
2022/01/24 10:57:40;;;;;;;;;44.75;38.25;;;;;6.97;100.00;102862.63;5034379;28;45466;-80
2022/01/24 11:00:11;;;;;;;;;45.25;36.25;;;;;7.03;100.00;102870.03;5042058;28;45416;-82
2022/01/24 11:02:42;;;;;;;;;49.00;38.75;;;;;7.07;100.00;102860.13;5043090;28;45503;-82
2022/01/24 11:05:18;;;;;;;;;39.75;37.00;;;;;7.10;100.00;102863.00;5021693;28;47203;-83
2022/01/24 11:08:05;;;;;;;;;38.25;35.25;;;;;7.15;100.00;102860.84;5036269;28;45804;-83
2022/01/24 11:10:39;;;;;;;;;50.00;39.00;;;;;7.20;100.00;102850.97;5034143;28;45529;-83
2022/01/24 11:13:06;;;;;;;;;44.00;35.00;;;;;7.24;100.00;102853.06;5035881;28;45550;-80
2022/01/24 11:15:33;;;;;;;;;51.00;38.25;;;;;7.31;100.00;102845.13;5017250;28;47674;-88
2022/01/24 11:18:01;;;;;;;;;39.25;34.75;;;;;7.34;100.00;102841.94;5005199;28;45902;-79
2022/01/24 11:20:31;;;;;;;;;47.50;38.50;;;;;7.38;100.00;102847.50;5032758;28;45519;-82
2022/01/24 11:23:01;;;;;;;;;41.75;37.00;;;;;7.41;100.00;102834.00;5033822;28;45596;-84
2022/01/24 11:25:30;;;;;;;;;50.75;38.00;;;;;7.43;100.00;102837.63;5030893;28;45449;-86
2022/01/24 11:27:56;;;;;;;;;56.50;38.00;;;;;7.46;100.00;102837.88;5035286;28;45428;-78
2022/01/24 11:30:24;;;;;;;;;40.00;34.75;;;;;7.50;100.00;102833.94;5026038;28;45566;-82
2022/01/24 11:33:01;;;;;;;;;40.25;33.00;;;;;7.54;100.00;102838.56;5018296;28;45254;-86
2022/01/24 11:35:41;;;;;;;;;41.25;36.25;;;;;7.57;100.00;102828.53;5021504;28;46227;-89
2022/01/24 11:38:28;;;;;;;;;45.75;40.50;;;;;7.61;100.00;102827.13;5033073;28;45430;-84
2022/01/24 11:41:04;;;;;;;;;44.50;36.25;;;;;7.63;100.00;102830.75;5038760;28;45367;-86
2022/01/24 11:43:36;;;;;;;;;38.50;32.25;;;;;7.67;100.00;102818.28;5037301;28;45261;-88
2022/01/24 11:46:07;;;;;;;;;44.25;35.50;;;;;7.68;100.00;102820.09;5034958;28;46246;-89
2022/01/24 11:48:35;;;;;;;;;42.00;34.50;;;;;7.69;100.00;102821.91;5033978;28;45466;-86
2022/01/24 11:51:09;;;;;;;;;42.25;37.00;;;;;7.73;100.00;102818.81;5034054;28;46021;-79
2022/01/24 11:53:43;;;;;;;;;42.50;37.00;;;;;7.76;100.00;102807.88;5035175;28;45688;-84
2022/01/24 11:56:32;;;;;;;;;45.50;35.75;;;;;7.81;100.00;102811.75;5036002;28;45725;-85
2022/01/24 11:59:22;;;;;;;;;46.00;35.75;;;;;7.85;100.00;102818.09;5035129;28;46022;-88
2022/01/24 12:01:54;;;;;;;;;45.50;35.00;;;;;7.88;100.00;102818.38;5037563;28;45625;-85
2022/01/24 12:05:01;;;;;;;;;39.00;35.00;;;;;7.91;100.00;102821.22;5034762;28;45586;-87
2022/01/24 12:07:32;;;;;;;;;40.25;35.25;;;;;7.94;100.00;102812.84;5007790;28;45535;-85
2022/01/24 12:10:34;;;;;;;;;42.50;36.50;;;;;7.98;100.00;102815.84;5000865;28;46049;-84
2022/01/24 12:13:22;;;;;;;;;43.25;36.00;;;;;7.98;100.00;102814.94;5014831;28;45539;-80
2022/01/24 12:15:48;;;;;;;;;45.75;37.25;;;;;8.02;100.00;102810.19;5016777;28;45454;-85
2022/01/24 12:18:26;;;;;;;;;51.00;36.25;;;;;8.06;100.00;102814.81;5022034;28;45773;-81
2022/01/24 12:21:14;;;;;;;;;42.75;34.75;;;;;8.10;100.00;102804.78;5028397;28;46028;-79
2022/01/24 12:23:42;;;;;;;;;35.50;33.00;;;;;8.12;100.00;102806.72;5033819;28;45556;-80
2022/01/24 12:26:09;;;;;;;;;44.75;38.50;;;;;8.18;100.00;102809.84;5037191;28;45483;-81
2022/01/24 12:28:46;;;;;;;;;42.25;37.25;;;;;8.20;100.00;102800.56;5040194;28;46396;-77
2022/01/24 12:31:44;;;;;;;;;38.75;31.00;;;;;8.22;100.00;102803.25;5039123;28;45481;-83
2022/01/24 12:34:15;;;;;;;;;40.50;34.50;;;;;8.26;100.00;102802.75;5017540;28;45611;-81
2022/01/24 12:36:47;;;;;;;;;37.50;35.00;;;;;8.31;100.00;102806.63;5036911;28;45709;-81
2022/01/24 12:39:15;;;;;;;;;39.00;35.75;;;;;8.36;99.97;102807.03;5033854;28;46701;-82
2022/01/24 12:41:47;;;;;;;;;46.75;35.50;;;;;8.40;99.36;102801.38;5035941;28;45750;-83
2022/01/24 12:46:59;;;;;;;;;38.75;33.75;;;;;8.54;100.00;102799.06;5038413;28;45335;-81
2022/01/24 12:49:30;;;;;;;;;43.00;35.00;;;;;8.60;98.47;102800.50;5038546;28;45438;-81
2022/01/24 12:52:00;;;;;;;;;41.25;35.00;;;;;8.67;98.23;102789.94;5023496;28;45453;-80
2022/01/24 12:54:31;;;;;;;;;36.00;34.00;;;;;8.77;98.74;102782.97;5037069;28;45327;-79
2022/01/24 12:57:05;;;;;;;;;32.50;29.25;;;;;8.85;95.60;102787.09;5025175;28;45462;-77
2022/01/24 12:59:33;;;;;;;;;43.75;34.00;;;;;8.91;96.17;102781.53;5031803;28;45521;-77
2022/01/24 13:02:02;;;;;;;;;38.75;33.25;;;;;8.96;95.69;102785.41;5036603;28;45889;-82